sensor_id;sensor_type;location;lat;lon;timestamp;P1;durP1;ratioP1;P2;durP2;ratioP2
4049;SDS011;2039;50.894;6.888;2023-03-15T00:02:20;82.32;;;17.25;;
4049;SDS011;2039;50.894;6.888;2023-03-15T00:04:51;75.80;;;18.60;;
4049;SDS011;2039;50.894;6.888;2023-03-15T00:13:39;74.82;;;24.00;;
4049;SDS011;2039;50.894;6.888;2023-03-15T00:19:40;78.38;;;23.38;;
4049;SDS011;2039;50.894;6.888;2023-03-15T00:22:22;75.35;;;20.02;;
4049;SDS011;2039;50.894;6.888;2023-03-15T00:24:57;80.57;;;25.15;;
4049;SDS011;2039;50.894;6.888;2023-03-15T00:30:40;82.97;;;22.92;;
4049;SDS011;2039;50.894;6.888;2023-03-15T00:33:31;75.07;;;19.73;;
4049;SDS011;2039;50.894;6.888;2023-03-15T00:36:25;73.47;;;22.42;;
4049;SDS011;2039;50.894;6.888;2023-03-15T00:39:05;73.75;;;21.75;;
4049;SDS011;2039;50.894;6.888;2023-03-15T00:41:54;78.80;;;25.63;;
4049;SDS011;2039;50.894;6.888;2023-03-15T00:44:29;78.57;;;23.63;;
4049;SDS011;2039;50.894;6.888;2023-03-15T00:50:37;79.32;;;23.48;;
4049;SDS011;2039;50.894;6.888;2023-03-15T00:53:10;82.35;;;23.00;;
4049;SDS011;2039;50.894;6.888;2023-03-15T00:55:54;76.88;;;21.15;;
4049;SDS011;2039;50.894;6.888;2023-03-15T00:58:40;82.00;;;25.48;;
4049;SDS011;2039;50.894;6.888;2023-03-15T01:01:26;83.05;;;23.25;;
4049;SDS011;2039;50.894;6.888;2023-03-15T01:04:49;78.38;;;23.08;;
4049;SDS011;2039;50.894;6.888;2023-03-15T01:07:10;80.28;;;24.70;;
4049;SDS011;2039;50.894;6.888;2023-03-15T01:09:45;82.28;;;28.08;;
4049;SDS011;2039;50.894;6.888;2023-03-15T01:12:14;81.07;;;26.73;;
4049;SDS011;2039;50.894;6.888;2023-03-15T01:14:46;81.18;;;25.27;;
4049;SDS011;2039;50.894;6.888;2023-03-15T01:17:18;75.85;;;26.63;;
4049;SDS011;2039;50.894;6.888;2023-03-15T01:19:44;82.68;;;22.20;;
4049;SDS011;2039;50.894;6.888;2023-03-15T01:22:25;75.50;;;21.08;;
4049;SDS011;2039;50.894;6.888;2023-03-15T01:25:22;77.13;;;21.27;;
4049;SDS011;2039;50.894;6.888;2023-03-15T01:30:55;79.03;;;31.65;;
4049;SDS011;2039;50.894;6.888;2023-03-15T01:33:21;78.15;;;24.50;;
4049;SDS011;2039;50.894;6.888;2023-03-15T01:35:47;74.65;;;22.05;;
4049;SDS011;2039;50.894;6.888;2023-03-15T01:38:21;74.18;;;21.23;;
4049;SDS011;2039;50.894;6.888;2023-03-15T01:40:54;73.57;;;18.52;;
4049;SDS011;2039;50.894;6.888;2023-03-15T01:43:23;79.57;;;17.30;;
4049;SDS011;2039;50.894;6.888;2023-03-15T01:46:04;79.60;;;15.38;;
4049;SDS011;2039;50.894;6.888;2023-03-15T01:49:03;70.38;;;10.60;;
4049;SDS011;2039;50.894;6.888;2023-03-15T01:51:40;70.07;;;8.32;;
4049;SDS011;2039;50.894;6.888;2023-03-15T01:54:15;70.85;;;9.10;;
4049;SDS011;2039;50.894;6.888;2023-03-15T01:57:15;70.43;;;9.60;;
4049;SDS011;2039;50.894;6.888;2023-03-15T02:00:00;69.90;;;10.32;;
4049;SDS011;2039;50.894;6.888;2023-03-15T02:02:38;74.40;;;10.80;;
4049;SDS011;2039;50.894;6.888;2023-03-15T02:05:16;78.35;;;13.68;;
4049;SDS011;2039;50.894;6.888;2023-03-15T02:07:47;74.00;;;12.20;;
4049;SDS011;2039;50.894;6.888;2023-03-15T02:10:18;77.53;;;14.30;;
4049;SDS011;2039;50.894;6.888;2023-03-15T02:12:51;80.10;;;14.43;;
4049;SDS011;2039;50.894;6.888;2023-03-15T02:15:23;75.32;;;12.25;;
4049;SDS011;2039;50.894;6.888;2023-03-15T02:17:49;72.27;;;11.40;;
4049;SDS011;2039;50.894;6.888;2023-03-15T02:23:19;78.13;;;12.50;;
4049;SDS011;2039;50.894;6.888;2023-03-15T02:28:33;81.18;;;12.00;;
4049;SDS011;2039;50.894;6.888;2023-03-15T02:30:59;73.43;;;10.57;;
4049;SDS011;2039;50.894;6.888;2023-03-15T02:36:05;71.05;;;10.88;;
4049;SDS011;2039;50.894;6.888;2023-03-15T02:38:56;72.85;;;11.05;;
4049;SDS011;2039;50.894;6.888;2023-03-15T02:44:06;75.53;;;10.95;;
4049;SDS011;2039;50.894;6.888;2023-03-15T02:46:35;71.18;;;10.45;;
4049;SDS011;2039;50.894;6.888;2023-03-15T02:49:02;74.72;;;11.55;;
4049;SDS011;2039;50.894;6.888;2023-03-15T02:51:31;69.93;;;10.70;;
4049;SDS011;2039;50.894;6.888;2023-03-15T02:53:58;72.07;;;11.38;;
4049;SDS011;2039;50.894;6.888;2023-03-15T02:56:23;71.90;;;11.50;;
4049;SDS011;2039;50.894;6.888;2023-03-15T02:58:49;73.53;;;10.47;;
4049;SDS011;2039;50.894;6.888;2023-03-15T03:01:16;73.05;;;10.38;;
4049;SDS011;2039;50.894;6.888;2023-03-15T03:03:43;74.53;;;12.90;;
4049;SDS011;2039;50.894;6.888;2023-03-15T03:06:11;71.00;;;11.23;;
4049;SDS011;2039;50.894;6.888;2023-03-15T03:08:37;72.18;;;11.82;;
4049;SDS011;2039;50.894;6.888;2023-03-15T03:11:03;71.27;;;11.20;;
4049;SDS011;2039;50.894;6.888;2023-03-15T03:13:29;70.28;;;11.00;;
4049;SDS011;2039;50.894;6.888;2023-03-15T03:15:58;71.32;;;11.75;;
4049;SDS011;2039;50.894;6.888;2023-03-15T03:18:27;69.53;;;10.70;;
4049;SDS011;2039;50.894;6.888;2023-03-15T03:20:57;72.93;;;11.05;;
4049;SDS011;2039;50.894;6.888;2023-03-15T03:23:24;70.20;;;9.50;;
4049;SDS011;2039;50.894;6.888;2023-03-15T03:25:53;73.22;;;10.40;;
4049;SDS011;2039;50.894;6.888;2023-03-15T03:28:20;71.38;;;11.32;;
4049;SDS011;2039;50.894;6.888;2023-03-15T03:30:48;69.28;;;11.05;;
4049;SDS011;2039;50.894;6.888;2023-03-15T03:33:14;68.35;;;10.00;;
4049;SDS011;2039;50.894;6.888;2023-03-15T03:35:40;67.60;;;9.70;;
4049;SDS011;2039;50.894;6.888;2023-03-15T03:38:06;70.77;;;11.27;;
4049;SDS011;2039;50.894;6.888;2023-03-15T03:40:33;69.60;;;10.05;;
4049;SDS011;2039;50.894;6.888;2023-03-15T03:42:58;68.80;;;8.90;;
4049;SDS011;2039;50.894;6.888;2023-03-15T03:45:24;69.47;;;9.17;;
4049;SDS011;2039;50.894;6.888;2023-03-15T03:47:50;69.03;;;9.13;;
4049;SDS011;2039;50.894;6.888;2023-03-15T03:50:16;71.27;;;9.30;;
4049;SDS011;2039;50.894;6.888;2023-03-15T03:52:42;69.77;;;10.10;;
4049;SDS011;2039;50.894;6.888;2023-03-15T03:55:08;70.47;;;8.60;;
4049;SDS011;2039;50.894;6.888;2023-03-15T03:57:37;68.13;;;7.95;;
4049;SDS011;2039;50.894;6.888;2023-03-15T04:00:04;66.88;;;8.68;;
4049;SDS011;2039;50.894;6.888;2023-03-15T04:02:30;68.00;;;9.38;;
4049;SDS011;2039;50.894;6.888;2023-03-15T04:04:56;68.03;;;8.83;;
4049;SDS011;2039;50.894;6.888;2023-03-15T04:07:21;68.37;;;9.00;;
4049;SDS011;2039;50.894;6.888;2023-03-15T04:09:47;72.63;;;9.90;;
4049;SDS011;2039;50.894;6.888;2023-03-15T04:12:13;67.53;;;8.63;;
4049;SDS011;2039;50.894;6.888;2023-03-15T04:14:38;67.93;;;9.17;;
4049;SDS011;2039;50.894;6.888;2023-03-15T04:17:04;69.87;;;8.43;;
4049;SDS011;2039;50.894;6.888;2023-03-15T04:19:30;67.40;;;9.50;;
4049;SDS011;2039;50.894;6.888;2023-03-15T04:21:55;69.90;;;7.73;;
4049;SDS011;2039;50.894;6.888;2023-03-15T04:24:21;68.17;;;9.10;;
4049;SDS011;2039;50.894;6.888;2023-03-15T04:26:47;69.07;;;8.47;;
4049;SDS011;2039;50.894;6.888;2023-03-15T04:29:12;69.40;;;9.10;;
4049;SDS011;2039;50.894;6.888;2023-03-15T04:31:39;68.30;;;8.25;;
4049;SDS011;2039;50.894;6.888;2023-03-15T04:34:07;68.35;;;9.00;;
4049;SDS011;2039;50.894;6.888;2023-03-15T04:36:33;67.95;;;9.23;;
4049;SDS011;2039;50.894;6.888;2023-03-15T04:38:59;68.30;;;9.90;;
4049;SDS011;2039;50.894;6.888;2023-03-15T04:41:32;75.93;;;9.13;;
4049;SDS011;2039;50.894;6.888;2023-03-15T04:44:02;69.75;;;9.70;;
4049;SDS011;2039;50.894;6.888;2023-03-15T04:46:29;72.57;;;9.90;;
4049;SDS011;2039;50.894;6.888;2023-03-15T04:48:55;67.32;;;9.75;;
4049;SDS011;2039;50.894;6.888;2023-03-15T04:51:21;69.63;;;9.93;;
4049;SDS011;2039;50.894;6.888;2023-03-15T04:53:47;68.97;;;9.13;;
4049;SDS011;2039;50.894;6.888;2023-03-15T04:56:13;68.37;;;9.80;;
4049;SDS011;2039;50.894;6.888;2023-03-15T04:58:38;69.50;;;11.30;;
4049;SDS011;2039;50.894;6.888;2023-03-15T05:01:04;66.87;;;8.47;;
4049;SDS011;2039;50.894;6.888;2023-03-15T05:03:30;68.03;;;9.90;;
4049;SDS011;2039;50.894;6.888;2023-03-15T05:05:55;69.30;;;8.77;;
4049;SDS011;2039;50.894;6.888;2023-03-15T05:08:21;68.67;;;8.20;;
4049;SDS011;2039;50.894;6.888;2023-03-15T05:10:46;68.43;;;9.10;;
4049;SDS011;2039;50.894;6.888;2023-03-15T05:13:12;69.77;;;10.20;;
4049;SDS011;2039;50.894;6.888;2023-03-15T05:15:38;67.77;;;8.90;;
4049;SDS011;2039;50.894;6.888;2023-03-15T05:18:03;69.27;;;8.90;;
4049;SDS011;2039;50.894;6.888;2023-03-15T05:20:29;68.07;;;9.53;;
4049;SDS011;2039;50.894;6.888;2023-03-15T05:22:56;69.75;;;10.60;;
4049;SDS011;2039;50.894;6.888;2023-03-15T05:25:23;70.28;;;9.90;;
4049;SDS011;2039;50.894;6.888;2023-03-15T05:27:48;70.27;;;10.47;;
4049;SDS011;2039;50.894;6.888;2023-03-15T05:30:14;73.97;;;11.87;;
4049;SDS011;2039;50.894;6.888;2023-03-15T05:32:40;72.18;;;12.93;;
4049;SDS011;2039;50.894;6.888;2023-03-15T05:35:09;73.97;;;11.65;;
4049;SDS011;2039;50.894;6.888;2023-03-15T05:37:35;73.07;;;12.35;;
4049;SDS011;2039;50.894;6.888;2023-03-15T05:40:01;72.57;;;12.70;;
4049;SDS011;2039;50.894;6.888;2023-03-15T05:42:32;73.43;;;12.35;;
4049;SDS011;2039;50.894;6.888;2023-03-15T05:44:58;71.72;;;12.50;;
4049;SDS011;2039;50.894;6.888;2023-03-15T05:47:23;72.60;;;12.50;;
4049;SDS011;2039;50.894;6.888;2023-03-15T05:49:49;74.30;;;13.53;;
4049;SDS011;2039;50.894;6.888;2023-03-15T05:52:16;71.82;;;12.38;;
4049;SDS011;2039;50.894;6.888;2023-03-15T05:54:42;72.27;;;12.57;;
4049;SDS011;2039;50.894;6.888;2023-03-15T05:57:07;72.23;;;12.27;;
4049;SDS011;2039;50.894;6.888;2023-03-15T05:59:34;73.38;;;12.07;;
4049;SDS011;2039;50.894;6.888;2023-03-15T06:01:59;70.30;;;11.03;;
4049;SDS011;2039;50.894;6.888;2023-03-15T06:04:25;70.30;;;11.20;;
4049;SDS011;2039;50.894;6.888;2023-03-15T06:06:51;70.20;;;10.63;;
4049;SDS011;2039;50.894;6.888;2023-03-15T06:09:17;72.07;;;10.55;;
4049;SDS011;2039;50.894;6.888;2023-03-15T06:11:43;69.93;;;11.18;;
4049;SDS011;2039;50.894;6.888;2023-03-15T06:14:09;69.57;;;10.50;;
4049;SDS011;2039;50.894;6.888;2023-03-15T06:16:35;70.67;;;11.90;;
4049;SDS011;2039;50.894;6.888;2023-03-15T06:19:00;70.17;;;11.17;;
4049;SDS011;2039;50.894;6.888;2023-03-15T06:21:27;70.45;;;11.50;;
4049;SDS011;2039;50.894;6.888;2023-03-15T06:23:52;72.67;;;10.63;;
4049;SDS011;2039;50.894;6.888;2023-03-15T06:26:18;70.60;;;10.83;;
4049;SDS011;2039;50.894;6.888;2023-03-15T06:28:44;71.30;;;11.98;;
4049;SDS011;2039;50.894;6.888;2023-03-15T06:31:11;70.60;;;10.00;;
4049;SDS011;2039;50.894;6.888;2023-03-15T06:33:37;71.13;;;10.73;;
4049;SDS011;2039;50.894;6.888;2023-03-15T06:36:04;69.20;;;10.23;;
4049;SDS011;2039;50.894;6.888;2023-03-15T06:38:30;70.90;;;10.65;;
4049;SDS011;2039;50.894;6.888;2023-03-15T06:40:57;72.97;;;12.75;;
4049;SDS011;2039;50.894;6.888;2023-03-15T06:43:25;73.00;;;11.20;;
4049;SDS011;2039;50.894;6.888;2023-03-15T06:45:51;75.05;;;12.45;;
4049;SDS011;2039;50.894;6.888;2023-03-15T06:48:17;76.20;;;12.20;;
4049;SDS011;2039;50.894;6.888;2023-03-15T06:50:43;73.47;;;12.40;;
4049;SDS011;2039;50.894;6.888;2023-03-15T06:53:09;70.40;;;11.37;;
4049;SDS011;2039;50.894;6.888;2023-03-15T06:55:35;73.50;;;12.10;;
4049;SDS011;2039;50.894;6.888;2023-03-15T06:58:00;74.57;;;12.40;;
4049;SDS011;2039;50.894;6.888;2023-03-15T07:00:26;73.57;;;13.97;;
4049;SDS011;2039;50.894;6.888;2023-03-15T07:02:52;73.97;;;13.27;;
4049;SDS011;2039;50.894;6.888;2023-03-15T07:05:17;75.77;;;12.87;;
4049;SDS011;2039;50.894;6.888;2023-03-15T07:07:43;76.13;;;13.43;;
4049;SDS011;2039;50.894;6.888;2023-03-15T07:10:09;76.17;;;13.63;;
4049;SDS011;2039;50.894;6.888;2023-03-15T07:12:35;74.60;;;14.38;;
4049;SDS011;2039;50.894;6.888;2023-03-15T07:15:01;76.37;;;12.53;;
4049;SDS011;2039;50.894;6.888;2023-03-15T07:17:26;72.87;;;12.10;;
4049;SDS011;2039;50.894;6.888;2023-03-15T07:19:52;76.47;;;14.37;;
4049;SDS011;2039;50.894;6.888;2023-03-15T07:22:18;74.88;;;14.35;;
4049;SDS011;2039;50.894;6.888;2023-03-15T07:24:46;74.53;;;13.80;;
4049;SDS011;2039;50.894;6.888;2023-03-15T07:27:12;74.90;;;13.80;;
4049;SDS011;2039;50.894;6.888;2023-03-15T07:29:39;76.88;;;13.88;;
4049;SDS011;2039;50.894;6.888;2023-03-15T07:32:05;78.45;;;15.93;;
4049;SDS011;2039;50.894;6.888;2023-03-15T07:34:31;77.90;;;15.60;;
4049;SDS011;2039;50.894;6.888;2023-03-15T07:36:56;77.23;;;15.83;;
4049;SDS011;2039;50.894;6.888;2023-03-15T07:39:22;79.37;;;17.20;;
4049;SDS011;2039;50.894;6.888;2023-03-15T07:41:49;78.97;;;15.82;;
4049;SDS011;2039;50.894;6.888;2023-03-15T07:44:16;82.15;;;17.08;;
4049;SDS011;2039;50.894;6.888;2023-03-15T07:46:42;84.83;;;16.00;;
4049;SDS011;2039;50.894;6.888;2023-03-15T07:49:08;79.17;;;17.07;;
4049;SDS011;2039;50.894;6.888;2023-03-15T07:51:33;79.57;;;16.23;;
4049;SDS011;2039;50.894;6.888;2023-03-15T07:53:59;82.30;;;16.10;;
4049;SDS011;2039;50.894;6.888;2023-03-15T07:56:25;84.50;;;15.43;;
4049;SDS011;2039;50.894;6.888;2023-03-15T07:58:50;77.17;;;15.67;;
4049;SDS011;2039;50.894;6.888;2023-03-15T08:01:16;78.00;;;16.10;;
4049;SDS011;2039;50.894;6.888;2023-03-15T08:03:41;78.87;;;15.50;;
4049;SDS011;2039;50.894;6.888;2023-03-15T08:06:07;81.33;;;16.60;;
4049;SDS011;2039;50.894;6.888;2023-03-15T08:08:33;83.70;;;16.57;;
4049;SDS011;2039;50.894;6.888;2023-03-15T08:10:59;79.17;;;17.03;;
4049;SDS011;2039;50.894;6.888;2023-03-15T08:13:24;86.87;;;17.30;;
4049;SDS011;2039;50.894;6.888;2023-03-15T08:15:50;84.20;;;18.50;;
4049;SDS011;2039;50.894;6.888;2023-03-15T08:18:16;80.67;;;16.77;;
4049;SDS011;2039;50.894;6.888;2023-03-15T08:20:42;81.43;;;16.63;;
4049;SDS011;2039;50.894;6.888;2023-03-15T08:23:07;81.20;;;15.70;;
4049;SDS011;2039;50.894;6.888;2023-03-15T08:25:33;81.00;;;15.50;;
4049;SDS011;2039;50.894;6.888;2023-03-15T08:28:00;83.28;;;16.75;;
4049;SDS011;2039;50.894;6.888;2023-03-15T08:30:26;80.67;;;15.17;;
4049;SDS011;2039;50.894;6.888;2023-03-15T08:32:51;81.80;;;17.30;;
4049;SDS011;2039;50.894;6.888;2023-03-15T08:35:18;81.43;;;16.93;;
4049;SDS011;2039;50.894;6.888;2023-03-15T08:37:45;87.78;;;18.15;;
4049;SDS011;2039;50.894;6.888;2023-03-15T08:40:12;81.53;;;16.70;;
4049;SDS011;2039;50.894;6.888;2023-03-15T08:42:39;83.75;;;17.55;;
4049;SDS011;2039;50.894;6.888;2023-03-15T08:45:05;82.33;;;16.20;;
4049;SDS011;2039;50.894;6.888;2023-03-15T08:47:34;79.43;;;14.70;;
4049;SDS011;2039;50.894;6.888;2023-03-15T08:50:10;83.25;;;18.20;;
4049;SDS011;2039;50.894;6.888;2023-03-15T08:52:56;82.03;;;16.23;;
4049;SDS011;2039;50.894;6.888;2023-03-15T08:55:36;81.25;;;16.90;;
4049;SDS011;2039;50.894;6.888;2023-03-15T08:58:05;86.38;;;17.95;;
4049;SDS011;2039;50.894;6.888;2023-03-15T09:00:35;91.53;;;20.10;;
4049;SDS011;2039;50.894;6.888;2023-03-15T09:03:10;85.50;;;17.63;;
4049;SDS011;2039;50.894;6.888;2023-03-15T09:05:47;81.00;;;15.80;;
4049;SDS011;2039;50.894;6.888;2023-03-15T09:08:31;79.10;;;15.82;;
4049;SDS011;2039;50.894;6.888;2023-03-15T09:11:03;81.18;;;17.67;;
4049;SDS011;2039;50.894;6.888;2023-03-15T09:13:37;78.88;;;15.68;;
4049;SDS011;2039;50.894;6.888;2023-03-15T09:16:41;75.93;;;14.18;;
4049;SDS011;2039;50.894;6.888;2023-03-15T09:19:09;83.22;;;16.92;;
4049;SDS011;2039;50.894;6.888;2023-03-15T09:21:34;78.70;;;15.50;;
4049;SDS011;2039;50.894;6.888;2023-03-15T09:24:03;78.85;;;16.38;;
4049;SDS011;2039;50.894;6.888;2023-03-15T09:26:29;80.13;;;15.23;;
4049;SDS011;2039;50.894;6.888;2023-03-15T09:28:55;77.37;;;18.50;;
4049;SDS011;2039;50.894;6.888;2023-03-15T09:31:20;76.47;;;16.17;;
4049;SDS011;2039;50.894;6.888;2023-03-15T09:34:31;77.60;;;16.53;;
4049;SDS011;2039;50.894;6.888;2023-03-15T09:36:40;77.13;;;16.27;;
4049;SDS011;2039;50.894;6.888;2023-03-15T09:39:31;78.70;;;16.42;;
4049;SDS011;2039;50.894;6.888;2023-03-15T09:42:21;76.68;;;14.52;;
4049;SDS011;2039;50.894;6.888;2023-03-15T09:48:29;78.18;;;19.08;;
4049;SDS011;2039;50.894;6.888;2023-03-15T09:57:10;75.90;;;16.80;;
4049;SDS011;2039;50.894;6.888;2023-03-15T10:00:05;77.30;;;18.55;;
4049;SDS011;2039;50.894;6.888;2023-03-15T10:06:23;75.05;;;14.25;;
4049;SDS011;2039;50.894;6.888;2023-03-15T10:09:33;78.97;;;17.10;;
4049;SDS011;2039;50.894;6.888;2023-03-15T10:15:31;74.03;;;9.50;;
4049;SDS011;2039;50.894;6.888;2023-03-15T10:26:54;69.95;;;7.25;;
4049;SDS011;2039;50.894;6.888;2023-03-15T10:29:33;71.00;;;7.35;;
4049;SDS011;2039;50.894;6.888;2023-03-15T10:32:05;70.88;;;8.25;;
4049;SDS011;2039;50.894;6.888;2023-03-15T10:34:43;70.95;;;7.72;;
4049;SDS011;2039;50.894;6.888;2023-03-15T10:37:18;70.93;;;8.55;;
4049;SDS011;2039;50.894;6.888;2023-03-15T10:39:47;72.87;;;8.13;;
4049;SDS011;2039;50.894;6.888;2023-03-15T10:42:30;71.20;;;8.77;;
4049;SDS011;2039;50.894;6.888;2023-03-15T10:45:10;67.93;;;7.43;;
4049;SDS011;2039;50.894;6.888;2023-03-15T10:47:42;72.85;;;7.47;;
4049;SDS011;2039;50.894;6.888;2023-03-15T10:50:24;71.93;;;9.25;;
4049;SDS011;2039;50.894;6.888;2023-03-15T10:53:18;70.72;;;8.15;;
4049;SDS011;2039;50.894;6.888;2023-03-15T10:55:55;70.57;;;6.05;;
4049;SDS011;2039;50.894;6.888;2023-03-15T10:58:45;71.10;;;6.10;;
4049;SDS011;2039;50.894;6.888;2023-03-15T11:01:30;72.68;;;7.20;;
4049;SDS011;2039;50.894;6.888;2023-03-15T11:10:13;72.13;;;5.35;;
4049;SDS011;2039;50.894;6.888;2023-03-15T11:21:21;67.97;;;5.80;;
4049;SDS011;2039;50.894;6.888;2023-03-15T11:23:52;75.65;;;7.30;;
4049;SDS011;2039;50.894;6.888;2023-03-15T11:26:25;67.45;;;5.93;;
4049;SDS011;2039;50.894;6.888;2023-03-15T11:28:52;68.05;;;5.85;;
4049;SDS011;2039;50.894;6.888;2023-03-15T11:31:31;69.97;;;6.45;;
4049;SDS011;2039;50.894;6.888;2023-03-15T11:34:19;68.90;;;4.95;;
4049;SDS011;2039;50.894;6.888;2023-03-15T11:36:50;71.28;;;5.22;;
4049;SDS011;2039;50.894;6.888;2023-03-15T11:39:35;69.30;;;5.53;;
4049;SDS011;2039;50.894;6.888;2023-03-15T11:42:09;66.80;;;4.82;;
4049;SDS011;2039;50.894;6.888;2023-03-15T11:44:46;68.60;;;4.75;;
4049;SDS011;2039;50.894;6.888;2023-03-15T11:49:52;73.13;;;5.32;;
4049;SDS011;2039;50.894;6.888;2023-03-15T11:52:20;65.38;;;3.97;;
4049;SDS011;2039;50.894;6.888;2023-03-15T11:54:48;72.97;;;4.60;;
4049;SDS011;2039;50.894;6.888;2023-03-15T11:59:55;68.20;;;4.95;;
4049;SDS011;2039;50.894;6.888;2023-03-15T12:04:47;71.00;;;4.73;;
4049;SDS011;2039;50.894;6.888;2023-03-15T12:09:50;66.28;;;4.30;;
4049;SDS011;2039;50.894;6.888;2023-03-15T12:14:52;68.97;;;3.95;;
4049;SDS011;2039;50.894;6.888;2023-03-15T12:17:49;64.45;;;3.45;;
4049;SDS011;2039;50.894;6.888;2023-03-15T12:28:35;68.20;;;4.15;;
4049;SDS011;2039;50.894;6.888;2023-03-15T12:31:03;74.25;;;4.47;;
4049;SDS011;2039;50.894;6.888;2023-03-15T12:33:33;71.40;;;4.65;;
4049;SDS011;2039;50.894;6.888;2023-03-15T12:41:40;72.93;;;4.60;;
4049;SDS011;2039;50.894;6.888;2023-03-15T12:51:53;67.63;;;4.25;;
4049;SDS011;2039;50.894;6.888;2023-03-15T12:54:19;67.72;;;3.83;;
4049;SDS011;2039;50.894;6.888;2023-03-15T12:56:55;67.53;;;4.95;;
4049;SDS011;2039;50.894;6.888;2023-03-15T12:59:47;66.30;;;3.70;;
4049;SDS011;2039;50.894;6.888;2023-03-15T13:02:53;69.75;;;4.38;;
4049;SDS011;2039;50.894;6.888;2023-03-15T13:27:52;68.28;;;3.88;;
4049;SDS011;2039;50.894;6.888;2023-03-15T13:31:27;69.30;;;4.35;;
4049;SDS011;2039;50.894;6.888;2023-03-15T13:33:55;69.45;;;4.60;;
4049;SDS011;2039;50.894;6.888;2023-03-15T13:36:37;68.43;;;4.40;;
4049;SDS011;2039;50.894;6.888;2023-03-15T13:39:07;65.38;;;4.00;;
4049;SDS011;2039;50.894;6.888;2023-03-15T13:41:38;66.55;;;4.47;;
4049;SDS011;2039;50.894;6.888;2023-03-15T13:44:06;66.30;;;3.70;;
4049;SDS011;2039;50.894;6.888;2023-03-15T13:46:42;67.78;;;4.40;;
4049;SDS011;2039;50.894;6.888;2023-03-15T13:49:08;70.00;;;4.63;;
4049;SDS011;2039;50.894;6.888;2023-03-15T13:51:38;70.15;;;5.15;;
4049;SDS011;2039;50.894;6.888;2023-03-15T13:54:06;66.28;;;4.15;;
4049;SDS011;2039;50.894;6.888;2023-03-15T13:59:45;66.07;;;4.20;;
4049;SDS011;2039;50.894;6.888;2023-03-15T14:02:14;67.05;;;4.28;;
4049;SDS011;2039;50.894;6.888;2023-03-15T14:05:07;65.53;;;3.70;;
4049;SDS011;2039;50.894;6.888;2023-03-15T14:08:05;68.65;;;4.07;;
4049;SDS011;2039;50.894;6.888;2023-03-15T14:10:37;64.85;;;4.30;;
4049;SDS011;2039;50.894;6.888;2023-03-15T14:13:16;71.32;;;4.65;;
4049;SDS011;2039;50.894;6.888;2023-03-15T14:15:48;67.07;;;4.85;;
4049;SDS011;2039;50.894;6.888;2023-03-15T14:18:21;65.28;;;3.70;;
4049;SDS011;2039;50.894;6.888;2023-03-15T14:21:01;67.45;;;4.25;;
4049;SDS011;2039;50.894;6.888;2023-03-15T14:23:50;68.85;;;4.40;;
4049;SDS011;2039;50.894;6.888;2023-03-15T14:26:20;67.40;;;4.10;;
4049;SDS011;2039;50.894;6.888;2023-03-15T14:29:03;65.28;;;4.40;;
4049;SDS011;2039;50.894;6.888;2023-03-15T14:31:39;65.50;;;4.40;;
4049;SDS011;2039;50.894;6.888;2023-03-15T14:36:55;67.32;;;3.90;;
4049;SDS011;2039;50.894;6.888;2023-03-15T14:39:26;66.20;;;4.45;;
4049;SDS011;2039;50.894;6.888;2023-03-15T14:41:54;70.03;;;4.35;;
4049;SDS011;2039;50.894;6.888;2023-03-15T14:44:20;69.93;;;3.90;;
4049;SDS011;2039;50.894;6.888;2023-03-15T14:46:49;68.90;;;4.30;;
4049;SDS011;2039;50.894;6.888;2023-03-15T14:49:20;67.65;;;3.85;;
4049;SDS011;2039;50.894;6.888;2023-03-15T14:51:49;65.20;;;3.55;;
4049;SDS011;2039;50.894;6.888;2023-03-15T14:54:22;66.88;;;3.90;;
4049;SDS011;2039;50.894;6.888;2023-03-15T14:56:51;65.53;;;3.70;;
4049;SDS011;2039;50.894;6.888;2023-03-15T14:59:17;66.95;;;3.67;;
4049;SDS011;2039;50.894;6.888;2023-03-15T15:01:43;66.00;;;3.67;;
4049;SDS011;2039;50.894;6.888;2023-03-15T15:04:13;68.88;;;3.90;;
4049;SDS011;2039;50.894;6.888;2023-03-15T15:06:39;65.15;;;3.70;;
4049;SDS011;2039;50.894;6.888;2023-03-15T15:09:22;67.50;;;3.80;;
4049;SDS011;2039;50.894;6.888;2023-03-15T15:11:51;65.97;;;3.70;;
4049;SDS011;2039;50.894;6.888;2023-03-15T15:14:23;66.65;;;3.28;;
4049;SDS011;2039;50.894;6.888;2023-03-15T15:16:55;65.82;;;3.60;;
4049;SDS011;2039;50.894;6.888;2023-03-15T15:19:21;64.97;;;3.33;;
4049;SDS011;2039;50.894;6.888;2023-03-15T15:24:22;66.13;;;3.80;;
4049;SDS011;2039;50.894;6.888;2023-03-15T15:26:56;70.47;;;3.83;;
4049;SDS011;2039;50.894;6.888;2023-03-15T15:29:32;67.20;;;3.40;;
4049;SDS011;2039;50.894;6.888;2023-03-15T15:32:27;64.90;;;3.00;;
4049;SDS011;2039;50.894;6.888;2023-03-15T15:34:55;65.27;;;2.57;;
4049;SDS011;2039;50.894;6.888;2023-03-15T15:38:13;64.82;;;2.80;;
4049;SDS011;2039;50.894;6.888;2023-03-15T15:43:58;67.40;;;3.40;;
4049;SDS011;2039;50.894;6.888;2023-03-15T15:46:24;66.93;;;2.95;;
4049;SDS011;2039;50.894;6.888;2023-03-15T15:48:52;67.28;;;3.55;;
4049;SDS011;2039;50.894;6.888;2023-03-15T15:54:45;65.72;;;3.75;;
4049;SDS011;2039;50.894;6.888;2023-03-15T15:57:26;66.55;;;3.58;;
4049;SDS011;2039;50.894;6.888;2023-03-15T16:00:02;64.65;;;3.30;;
4049;SDS011;2039;50.894;6.888;2023-03-15T16:02:47;65.38;;;3.60;;
4049;SDS011;2039;50.894;6.888;2023-03-15T16:05:18;67.20;;;3.25;;
4049;SDS011;2039;50.894;6.888;2023-03-15T16:08:19;69.22;;;3.97;;
4049;SDS011;2039;50.894;6.888;2023-03-15T16:11:17;65.18;;;3.50;;
4049;SDS011;2039;50.894;6.888;2023-03-15T16:14:14;70.50;;;3.45;;
4049;SDS011;2039;50.894;6.888;2023-03-15T16:16:45;73.20;;;3.55;;
4049;SDS011;2039;50.894;6.888;2023-03-15T16:19:14;65.68;;;3.63;;
4049;SDS011;2039;50.894;6.888;2023-03-15T16:21:43;66.13;;;3.70;;
4049;SDS011;2039;50.894;6.888;2023-03-15T16:24:25;66.15;;;4.43;;
4049;SDS011;2039;50.894;6.888;2023-03-15T16:26:58;67.40;;;3.97;;
4049;SDS011;2039;50.894;6.888;2023-03-15T16:29:36;68.53;;;3.97;;
4049;SDS011;2039;50.894;6.888;2023-03-15T16:32:10;66.63;;;4.53;;
4049;SDS011;2039;50.894;6.888;2023-03-15T16:34:47;64.88;;;3.50;;
4049;SDS011;2039;50.894;6.888;2023-03-15T16:37:18;65.00;;;3.95;;
4049;SDS011;2039;50.894;6.888;2023-03-15T16:39:52;67.95;;;3.53;;
4049;SDS011;2039;50.894;6.888;2023-03-15T16:42:36;67.65;;;3.15;;
4049;SDS011;2039;50.894;6.888;2023-03-15T16:45:49;73.35;;;3.47;;
4049;SDS011;2039;50.894;6.888;2023-03-15T16:48:14;111.00;;;15.23;;
4049;SDS011;2039;50.894;6.888;2023-03-15T16:50:40;112.40;;;15.53;;
4049;SDS011;2039;50.894;6.888;2023-03-15T16:53:12;111.15;;;13.93;;
4049;SDS011;2039;50.894;6.888;2023-03-15T16:55:38;88.78;;;8.57;;
4049;SDS011;2039;50.894;6.888;2023-03-15T16:58:10;68.85;;;5.00;;
4049;SDS011;2039;50.894;6.888;2023-03-15T17:00:46;70.35;;;4.00;;
4049;SDS011;2039;50.894;6.888;2023-03-15T17:05:48;66.95;;;3.90;;
4049;SDS011;2039;50.894;6.888;2023-03-15T17:08:55;77.70;;;11.60;;
4049;SDS011;2039;50.894;6.888;2023-03-15T17:11:26;66.47;;;3.88;;
4049;SDS011;2039;50.894;6.888;2023-03-15T17:13:53;67.03;;;3.80;;
4049;SDS011;2039;50.894;6.888;2023-03-15T17:16:23;68.32;;;4.57;;
4049;SDS011;2039;50.894;6.888;2023-03-15T17:18:49;65.95;;;3.58;;
4049;SDS011;2039;50.894;6.888;2023-03-15T17:21:16;64.97;;;3.78;;
4049;SDS011;2039;50.894;6.888;2023-03-15T17:23:45;69.00;;;3.80;;
4049;SDS011;2039;50.894;6.888;2023-03-15T17:26:13;65.65;;;3.60;;
4049;SDS011;2039;50.894;6.888;2023-03-15T17:28:41;66.25;;;4.10;;
4049;SDS011;2039;50.894;6.888;2023-03-15T17:31:17;68.00;;;3.60;;
4049;SDS011;2039;50.894;6.888;2023-03-15T17:33:44;64.35;;;3.80;;
4049;SDS011;2039;50.894;6.888;2023-03-15T17:36:13;72.70;;;4.30;;
4049;SDS011;2039;50.894;6.888;2023-03-15T17:38:43;67.70;;;3.97;;
4049;SDS011;2039;50.894;6.888;2023-03-15T17:44:29;65.57;;;3.92;;
4049;SDS011;2039;50.894;6.888;2023-03-15T17:47:25;67.30;;;3.50;;
4049;SDS011;2039;50.894;6.888;2023-03-15T17:49:58;67.28;;;4.45;;
4049;SDS011;2039;50.894;6.888;2023-03-15T17:55:38;65.70;;;4.35;;
4049;SDS011;2039;50.894;6.888;2023-03-15T17:58:49;66.50;;;4.43;;